sensor_id;sensor_type;location;lat;lon;timestamp;pressure;altitude;pressure_sealevel;temperature;humidity
21980;BME280;11154;48.558;9.234;2024-02-15T00:00:58;98006.72;;;15.53;80.58
21980;BME280;11154;48.558;9.234;2024-02-15T00:03:00;98012.09;;;15.53;80.63
21980;BME280;11154;48.558;9.234;2024-02-15T00:05:01;98004.56;;;15.49;80.80
21980;BME280;11154;48.558;9.234;2024-02-15T00:07:04;98000.06;;;15.49;80.91
21980;BME280;11154;48.558;9.234;2024-02-15T00:09:05;98001.09;;;15.48;80.24
21980;BME280;11154;48.558;9.234;2024-02-15T00:11:07;98003.28;;;15.45;80.29
21980;BME280;11154;48.558;9.234;2024-02-15T00:13:10;98001.81;;;15.42;81.31
21980;BME280;11154;48.558;9.234;2024-02-15T00:15:10;98008.34;;;15.40;81.60
21980;BME280;11154;48.558;9.234;2024-02-15T00:17:12;98007.50;;;15.39;81.69
21980;BME280;11154;48.558;9.234;2024-02-15T00:19:13;98006.50;;;15.40;81.84
21980;BME280;11154;48.558;9.234;2024-02-15T00:21:17;98004.81;;;15.39;81.63
21980;BME280;11154;48.558;9.234;2024-02-15T00:23:20;98000.47;;;15.38;81.74
21980;BME280;11154;48.558;9.234;2024-02-15T00:25:21;98002.53;;;15.36;81.68
21980;BME280;11154;48.558;9.234;2024-02-15T00:27:22;98006.88;;;15.37;81.40
21980;BME280;11154;48.558;9.234;2024-02-15T00:29:24;98004.53;;;15.34;81.49
21980;BME280;11154;48.558;9.234;2024-02-15T00:31:28;98007.59;;;15.31;81.72
21980;BME280;11154;48.558;9.234;2024-02-15T00:33:30;98020.81;;;15.33;81.73
21980;BME280;11154;48.558;9.234;2024-02-15T00:35:32;98014.59;;;15.32;81.82
21980;BME280;11154;48.558;9.234;2024-02-15T00:37:33;98010.91;;;15.33;81.79
21980;BME280;11154;48.558;9.234;2024-02-15T00:39:36;98013.59;;;15.33;81.69
21980;BME280;11154;48.558;9.234;2024-02-15T00:41:39;98009.22;;;15.32;81.53
21980;BME280;11154;48.558;9.234;2024-02-15T00:43:42;98018.31;;;15.31;81.98
21980;BME280;11154;48.558;9.234;2024-02-15T00:45:43;98019.19;;;15.24;81.59
21980;BME280;11154;48.558;9.234;2024-02-15T00:47:45;98016.19;;;15.19;82.55
21980;BME280;11154;48.558;9.234;2024-02-15T00:49:46;98021.72;;;15.17;82.96
21980;BME280;11154;48.558;9.234;2024-02-15T00:51:50;98015.22;;;15.12;83.49
21980;BME280;11154;48.558;9.234;2024-02-15T00:53:51;98015.75;;;15.08;83.59
21980;BME280;11154;48.558;9.234;2024-02-15T00:55:55;98016.94;;;15.05;83.90
21980;BME280;11154;48.558;9.234;2024-02-15T00:57:57;98016.09;;;15.05;84.08
21980;BME280;11154;48.558;9.234;2024-02-15T00:59:59;98010.94;;;15.03;84.15
21980;BME280;11154;48.558;9.234;2024-02-15T01:02:00;98003.91;;;15.02;84.18
21980;BME280;11154;48.558;9.234;2024-02-15T01:04:02;98003.06;;;15.02;84.37
21980;BME280;11154;48.558;9.234;2024-02-15T01:06:03;98005.41;;;15.05;84.02
21980;BME280;11154;48.558;9.234;2024-02-15T01:08:06;98005.03;;;15.08;83.55
21980;BME280;11154;48.558;9.234;2024-02-15T01:10:09;97993.97;;;15.11;83.66
21980;BME280;11154;48.558;9.234;2024-02-15T01:12:12;97996.47;;;15.12;83.66
21980;BME280;11154;48.558;9.234;2024-02-15T01:14:14;97993.59;;;15.13;83.54
21980;BME280;11154;48.558;9.234;2024-02-15T01:16:16;97997.94;;;15.14;83.53
21980;BME280;11154;48.558;9.234;2024-02-15T01:18:17;97996.94;;;15.15;83.46
21980;BME280;11154;48.558;9.234;2024-02-15T01:20:19;97982.53;;;15.16;82.80
21980;BME280;11154;48.558;9.234;2024-02-15T01:22:21;97986.41;;;15.14;82.94
21980;BME280;11154;48.558;9.234;2024-02-15T01:24:24;97988.22;;;15.13;82.60
21980;BME280;11154;48.558;9.234;2024-02-15T01:26:25;97987.59;;;15.12;83.04
21980;BME280;11154;48.558;9.234;2024-02-15T01:28:28;97987.75;;;15.10;82.65
21980;BME280;11154;48.558;9.234;2024-02-15T01:30:30;97978.09;;;15.09;82.86
21980;BME280;11154;48.558;9.234;2024-02-15T01:32:32;97978.25;;;15.08;82.64
21980;BME280;11154;48.558;9.234;2024-02-15T01:34:33;97975.56;;;15.08;82.42
21980;BME280;11154;48.558;9.234;2024-02-15T01:36:35;97979.09;;;15.08;82.33
21980;BME280;11154;48.558;9.234;2024-02-15T01:38:37;97972.88;;;15.08;81.80
21980;BME280;11154;48.558;9.234;2024-02-15T01:40:37;97969.72;;;15.04;81.65
21980;BME280;11154;48.558;9.234;2024-02-15T01:42:39;97969.72;;;15.04;82.16
21980;BME280;11154;48.558;9.234;2024-02-15T01:44:42;97969.56;;;15.06;82.01
21980;BME280;11154;48.558;9.234;2024-02-15T01:46:45;97977.59;;;15.06;81.46
21980;BME280;11154;48.558;9.234;2024-02-15T01:48:48;97970.75;;;15.03;81.50
21980;BME280;11154;48.558;9.234;2024-02-15T01:50:50;97974.59;;;15.01;81.50
21980;BME280;11154;48.558;9.234;2024-02-15T01:52:52;97974.59;;;15.01;81.73
21980;BME280;11154;48.558;9.234;2024-02-15T01:54:57;97972.59;;;15.03;81.67
21980;BME280;11154;48.558;9.234;2024-02-15T01:56:59;97963.53;;;15.04;81.34
21980;BME280;11154;48.558;9.234;2024-02-15T01:59:01;97963.88;;;15.01;80.85
21980;BME280;11154;48.558;9.234;2024-02-15T02:01:05;97936.50;;;13.84;85.35
21980;BME280;11154;48.558;9.234;2024-02-15T02:03:08;97934.06;;;12.79;92.34
21980;BME280;11154;48.558;9.234;2024-02-15T02:05:10;97940.75;;;12.26;95.51
21980;BME280;11154;48.558;9.234;2024-02-15T02:07:11;97930.44;;;11.90;97.63
21980;BME280;11154;48.558;9.234;2024-02-15T02:09:15;97946.94;;;11.60;99.26
21980;BME280;11154;48.558;9.234;2024-02-15T02:11:17;97937.38;;;11.32;100.00
21980;BME280;11154;48.558;9.234;2024-02-15T02:13:19;97938.06;;;11.34;100.00
21980;BME280;11154;48.558;9.234;2024-02-15T02:15:20;97941.47;;;11.19;100.00
21980;BME280;11154;48.558;9.234;2024-02-15T02:17:23;97942.19;;;11.03;100.00
21980;BME280;11154;48.558;9.234;2024-02-15T02:19:24;97942.19;;;10.86;100.00
21980;BME280;11154;48.558;9.234;2024-02-15T02:21:26;97947.81;;;10.83;100.00
21980;BME280;11154;48.558;9.234;2024-02-15T02:23:29;97945.09;;;10.75;100.00
21980;BME280;11154;48.558;9.234;2024-02-15T02:25:33;97946.75;;;10.76;100.00
21980;BME280;11154;48.558;9.234;2024-02-15T02:27:35;97949.16;;;10.70;100.00
21980;BME280;11154;48.558;9.234;2024-02-15T02:29:42;97949.09;;;10.62;100.00
21980;BME280;11154;48.558;9.234;2024-02-15T02:31:46;97953.66;;;10.52;100.00
21980;BME280;11154;48.558;9.234;2024-02-15T02:33:51;97951.81;;;10.52;100.00
21980;BME280;11154;48.558;9.234;2024-02-15T02:35:53;97948.03;;;10.55;100.00
21980;BME280;11154;48.558;9.234;2024-02-15T02:37:55;97947.34;;;10.53;100.00
21980;BME280;11154;48.558;9.234;2024-02-15T02:39:55;97952.88;;;10.42;100.00
21980;BME280;11154;48.558;9.234;2024-02-15T02:41:58;97943.63;;;10.46;100.00
21980;BME280;11154;48.558;9.234;2024-02-15T02:44:00;97944.69;;;10.53;100.00
21980;BME280;11154;48.558;9.234;2024-02-15T02:46:02;97950.84;;;10.53;100.00
21980;BME280;11154;48.558;9.234;2024-02-15T02:48:06;97950.00;;;10.53;100.00
21980;BME280;11154;48.558;9.234;2024-02-15T02:50:08;97949.03;;;10.54;100.00
21980;BME280;11154;48.558;9.234;2024-02-15T02:52:09;97948.34;;;10.52;100.00
21980;BME280;11154;48.558;9.234;2024-02-15T02:54:14;97945.84;;;10.50;100.00
21980;BME280;11154;48.558;9.234;2024-02-15T02:56:16;97945.59;;;10.44;100.00
21980;BME280;11154;48.558;9.234;2024-02-15T02:58:20;97939.72;;;10.40;100.00
21980;BME280;11154;48.558;9.234;2024-02-15T03:00:22;97944.59;;;10.45;100.00
21980;BME280;11154;48.558;9.234;2024-02-15T03:02:23;97946.56;;;10.43;100.00
21980;BME280;11154;48.558;9.234;2024-02-15T03:04:25;97944.44;;;10.46;100.00
21980;BME280;11154;48.558;9.234;2024-02-15T03:06:27;97940.50;;;10.50;100.00
21980;BME280;11154;48.558;9.234;2024-02-15T03:08:28;97945.38;;;10.55;100.00
21980;BME280;11154;48.558;9.234;2024-02-15T03:10:30;97944.38;;;10.56;100.00
21980;BME280;11154;48.558;9.234;2024-02-15T03:12:31;97951.75;;;10.62;100.00
21980;BME280;11154;48.558;9.234;2024-02-15T03:14:37;97942.78;;;10.63;100.00
21980;BME280;11154;48.558;9.234;2024-02-15T03:16:41;97951.38;;;10.57;100.00
21980;BME280;11154;48.558;9.234;2024-02-15T03:18:42;97942.56;;;10.56;100.00
21980;BME280;11154;48.558;9.234;2024-02-15T03:20:44;97946.75;;;10.59;100.00
21980;BME280;11154;48.558;9.234;2024-02-15T03:22:50;97944.38;;;10.56;100.00
21980;BME280;11154;48.558;9.234;2024-02-15T03:24:52;97947.94;;;10.47;100.00
21980;BME280;11154;48.558;9.234;2024-02-15T03:26:54;97940.81;;;10.47;100.00
21980;BME280;11154;48.558;9.234;2024-02-15T03:28:56;97955.13;;;10.37;100.00
21980;BME280;11154;48.558;9.234;2024-02-15T03:30:59;97949.06;;;10.27;100.00
21980;BME280;11154;48.558;9.234;2024-02-15T03:33:01;97943.19;;;10.23;100.00
21980;BME280;11154;48.558;9.234;2024-02-15T03:35:05;97946.31;;;10.19;100.00
21980;BME280;11154;48.558;9.234;2024-02-15T03:37:07;97943.34;;;10.22;100.00
21980;BME280;11154;48.558;9.234;2024-02-15T03:39:10;97941.38;;;10.24;100.00
21980;BME280;11154;48.558;9.234;2024-02-15T03:41:11;97942.97;;;10.17;100.00
21980;BME280;11154;48.558;9.234;2024-02-15T03:43:12;97950.41;;;10.13;100.00
21980;BME280;11154;48.558;9.234;2024-02-15T03:45:13;97945.53;;;10.09;100.00
21980;BME280;11154;48.558;9.234;2024-02-15T03:47:17;97949.75;;;10.02;100.00
21980;BME280;11154;48.558;9.234;2024-02-15T03:49:19;97940.13;;;9.92;100.00
21980;BME280;11154;48.558;9.234;2024-02-15T03:51:21;97956.50;;;9.87;100.00
21980;BME280;11154;48.558;9.234;2024-02-15T03:53:24;97955.13;;;9.83;100.00
21980;BME280;11154;48.558;9.234;2024-02-15T03:55:26;97956.84;;;9.75;100.00
21980;BME280;11154;48.558;9.234;2024-02-15T03:57:28;97954.88;;;9.77;100.00
21980;BME280;11154;48.558;9.234;2024-02-15T03:59:29;97947.78;;;9.68;100.00
21980;BME280;11154;48.558;9.234;2024-02-15T04:01:32;97985.81;;;10.58;100.00
21980;BME280;11154;48.558;9.234;2024-02-15T04:03:36;97980.94;;;11.06;100.00
21980;BME280;11154;48.558;9.234;2024-02-15T04:05:37;97982.34;;;11.35;100.00
21980;BME280;11154;48.558;9.234;2024-02-15T04:07:39;97979.06;;;11.58;100.00
21980;BME280;11154;48.558;9.234;2024-02-15T04:09:40;97987.19;;;11.82;99.65
21980;BME280;11154;48.558;9.234;2024-02-15T04:11:42;97983.16;;;12.04;97.81
21980;BME280;11154;48.558;9.234;2024-02-15T04:13:44;97987.78;;;12.27;96.60
21980;BME280;11154;48.558;9.234;2024-02-15T04:15:45;97993.00;;;12.44;94.99
21980;BME280;11154;48.558;9.234;2024-02-15T04:17:49;97994.72;;;12.61;93.63
21980;BME280;11154;48.558;9.234;2024-02-15T04:19:57;97996.75;;;12.75;92.39
21980;BME280;11154;48.558;9.234;2024-02-15T04:21:59;97998.84;;;12.89;92.09
21980;BME280;11154;48.558;9.234;2024-02-15T04:24:04;97996.66;;;13.00;92.08
21980;BME280;11154;48.558;9.234;2024-02-15T04:26:06;97995.50;;;13.11;91.27
21980;BME280;11154;48.558;9.234;2024-02-15T04:28:08;97997.38;;;13.18;90.54
21980;BME280;11154;48.558;9.234;2024-02-15T04:30:10;97997.53;;;13.25;89.98
21980;BME280;11154;48.558;9.234;2024-02-15T04:32:12;97990.69;;;13.30;89.21
21980;BME280;11154;48.558;9.234;2024-02-15T04:34:14;97991.72;;;13.37;89.02
21980;BME280;11154;48.558;9.234;2024-02-15T04:36:16;97992.22;;;13.41;88.62
21980;BME280;11154;48.558;9.234;2024-02-15T04:38:23;97984.84;;;13.43;87.96
21980;BME280;11154;48.558;9.234;2024-02-15T04:40:25;97989.00;;;13.45;87.66
21980;BME280;11154;48.558;9.234;2024-02-15T04:42:26;97984.53;;;13.46;87.60
21980;BME280;11154;48.558;9.234;2024-02-15T04:44:28;97991.19;;;13.50;87.84
21980;BME280;11154;48.558;9.234;2024-02-15T04:46:29;97987.53;;;13.51;87.16
21980;BME280;11154;48.558;9.234;2024-02-15T04:48:31;97986.53;;;13.52;87.04
21980;BME280;11154;48.558;9.234;2024-02-15T04:50:34;97981.69;;;13.55;87.11
21980;BME280;11154;48.558;9.234;2024-02-15T04:52:37;97982.50;;;13.56;86.68
21980;BME280;11154;48.558;9.234;2024-02-15T04:54:39;97979.19;;;13.54;86.25
21980;BME280;11154;48.558;9.234;2024-02-15T04:56:42;97976.50;;;13.54;86.48
21980;BME280;11154;48.558;9.234;2024-02-15T04:58:43;97971.47;;;13.51;85.89
21980;BME280;11154;48.558;9.234;2024-02-15T05:00:47;97964.81;;;13.47;85.26
21980;BME280;11154;48.558;9.234;2024-02-15T05:02:53;97969.81;;;13.42;84.54
21980;BME280;11154;48.558;9.234;2024-02-15T05:04:55;97975.00;;;13.35;84.08
21980;BME280;11154;48.558;9.234;2024-02-15T05:06:57;97971.16;;;13.30;84.36
21980;BME280;11154;48.558;9.234;2024-02-15T05:09:00;97975.34;;;13.24;84.04
21980;BME280;11154;48.558;9.234;2024-02-15T05:11:05;97971.00;;;13.23;84.12
21980;BME280;11154;48.558;9.234;2024-02-15T05:13:07;97968.66;;;13.20;82.75
21980;BME280;11154;48.558;9.234;2024-02-15T05:15:09;97967.16;;;13.18;82.69
21980;BME280;11154;48.558;9.234;2024-02-15T05:17:11;97960.50;;;13.22;83.71
21980;BME280;11154;48.558;9.234;2024-02-15T05:19:12;97973.69;;;13.23;84.59
21980;BME280;11154;48.558;9.234;2024-02-15T05:21:14;97979.00;;;13.23;84.72
21980;BME280;11154;48.558;9.234;2024-02-15T05:23:16;97967.81;;;13.20;84.02
21980;BME280;11154;48.558;9.234;2024-02-15T05:25:20;97962.50;;;13.20;83.62
21980;BME280;11154;48.558;9.234;2024-02-15T05:27:23;97962.81;;;13.17;82.81
21980;BME280;11154;48.558;9.234;2024-02-15T05:29:24;97970.16;;;13.15;82.89
21980;BME280;11154;48.558;9.234;2024-02-15T05:31:25;97955.78;;;13.16;83.61
21980;BME280;11154;48.558;9.234;2024-02-15T05:33:27;97955.66;;;13.17;83.84
21980;BME280;11154;48.558;9.234;2024-02-15T05:35:30;97950.13;;;13.19;84.12
21980;BME280;11154;48.558;9.234;2024-02-15T05:37:31;97954.47;;;13.20;84.02
21980;BME280;11154;48.558;9.234;2024-02-15T05:39:35;97959.66;;;13.21;83.76
21980;BME280;11154;48.558;9.234;2024-02-15T05:41:38;97951.47;;;13.23;82.84
21980;BME280;11154;48.558;9.234;2024-02-15T05:43:40;97951.13;;;13.26;82.47
21980;BME280;11154;48.558;9.234;2024-02-15T05:45:42;97956.66;;;13.24;82.63
21980;BME280;11154;48.558;9.234;2024-02-15T05:47:46;97963.81;;;13.24;82.39
21980;BME280;11154;48.558;9.234;2024-02-15T05:49:46;97954.63;;;13.26;82.19
21980;BME280;11154;48.558;9.234;2024-02-15T05:51:48;97964.31;;;13.27;82.54
21980;BME280;11154;48.558;9.234;2024-02-15T05:53:50;97962.31;;;13.29;82.48
21980;BME280;11154;48.558;9.234;2024-02-15T05:55:54;97966.50;;;13.32;81.79
21980;BME280;11154;48.558;9.234;2024-02-15T05:57:59;97968.16;;;13.33;80.95
21980;BME280;11154;48.558;9.234;2024-02-15T06:00:00;97965.31;;;13.34;80.59
21980;BME280;11154;48.558;9.234;2024-02-15T06:02:03;97961.66;;;13.35;80.60
21980;BME280;11154;48.558;9.234;2024-02-15T06:04:05;97958.97;;;13.35;80.61
21980;BME280;11154;48.558;9.234;2024-02-15T06:06:08;97959.66;;;13.29;79.10
21980;BME280;11154;48.558;9.234;2024-02-15T06:08:09;97964.13;;;13.29;80.62
21980;BME280;11154;48.558;9.234;2024-02-15T06:10:12;97959.81;;;13.28;81.52
21980;BME280;11154;48.558;9.234;2024-02-15T06:12:14;97978.16;;;13.23;81.90
21980;BME280;11154;48.558;9.234;2024-02-15T06:14:17;97979.19;;;13.14;82.00
21980;BME280;11154;48.558;9.234;2024-02-15T06:16:19;97971.84;;;13.08;82.18
21980;BME280;11154;48.558;9.234;2024-02-15T06:18:23;97974.19;;;13.03;82.12
21980;BME280;11154;48.558;9.234;2024-02-15T06:20:26;97969.47;;;12.97;81.78
21980;BME280;11154;48.558;9.234;2024-02-15T06:22:30;97969.47;;;12.97;82.22
21980;BME280;11154;48.558;9.234;2024-02-15T06:24:31;97966.28;;;12.94;81.59
21980;BME280;11154;48.558;9.234;2024-02-15T06:26:34;97971.81;;;12.92;81.98
21980;BME280;11154;48.558;9.234;2024-02-15T06:28:35;97969.13;;;12.92;81.80
21980;BME280;11154;48.558;9.234;2024-02-15T06:30:56;97968.13;;;12.93;82.04
21980;BME280;11154;48.558;9.234;2024-02-15T06:33:15;97970.81;;;12.93;82.50
21980;BME280;11154;48.558;9.234;2024-02-15T06:35:34;97970.81;;;12.93;81.83
21980;BME280;11154;48.558;9.234;2024-02-15T06:37:53;97973.00;;;12.98;82.50
21980;BME280;11154;48.558;9.234;2024-02-15T06:40:12;97969.81;;;13.02;82.99
21980;BME280;11154;48.558;9.234;2024-02-15T06:42:15;97974.00;;;13.04;82.53
21980;BME280;11154;48.558;9.234;2024-02-15T06:44:16;97965.63;;;13.07;82.53
21980;BME280;11154;48.558;9.234;2024-02-15T06:46:19;97966.31;;;13.09;82.26
21980;BME280;11154;48.558;9.234;2024-02-15T06:48:21;97961.81;;;13.10;81.83
21980;BME280;11154;48.558;9.234;2024-02-15T06:50:23;97963.47;;;13.11;82.15
21980;BME280;11154;48.558;9.234;2024-02-15T06:52:26;97959.81;;;13.12;81.88
21980;BME280;11154;48.558;9.234;2024-02-15T06:54:29;97959.97;;;13.10;81.83
21980;BME280;11154;48.558;9.234;2024-02-15T06:56:30;97960.16;;;13.09;82.08
21980;BME280;11154;48.558;9.234;2024-02-15T06:58:33;97956.47;;;13.10;82.17
21980;BME280;11154;48.558;9.234;2024-02-15T07:00:34;97961.81;;;13.10;82.59
21980;BME280;11154;48.558;9.234;2024-02-15T07:02:37;97959.31;;;13.08;82.67
21980;BME280;11154;48.558;9.234;2024-02-15T07:04:39;97960.31;;;13.07;82.02
21980;BME280;11154;48.558;9.234;2024-02-15T07:06:40;97959.31;;;13.08;82.09
21980;BME280;11154;48.558;9.234;2024-02-15T07:08:45;97960.47;;;13.06;82.46
21980;BME280;11154;48.558;9.234;2024-02-15T07:10:48;97959.31;;;13.08;81.99
21980;BME280;11154;48.558;9.234;2024-02-15T07:12:51;97958.13;;;13.11;81.46
21980;BME280;11154;48.558;9.234;2024-02-15T07:14:53;97963.34;;;13.12;81.20
21980;BME280;11154;48.558;9.234;2024-02-15T07:16:55;97965.16;;;13.12;81.51
21980;BME280;11154;48.558;9.234;2024-02-15T07:18:59;97957.31;;;13.10;82.22
21980;BME280;11154;48.558;9.234;2024-02-15T07:21:01;97963.81;;;13.08;82.23
21980;BME280;11154;48.558;9.234;2024-02-15T07:23:08;97959.78;;;13.04;82.46
21980;BME280;11154;48.558;9.234;2024-02-15T07:25:10;97958.16;;;13.03;82.19
21980;BME280;11154;48.558;9.234;2024-02-15T07:27:11;97953.81;;;13.02;82.11
21980;BME280;11154;48.558;9.234;2024-02-15T07:29:13;97953.81;;;13.02;82.51
21980;BME280;11154;48.558;9.234;2024-02-15T07:31:15;97952.13;;;13.01;81.80
21980;BME280;11154;48.558;9.234;2024-02-15T07:33:16;97951.97;;;13.02;82.37
21980;BME280;11154;48.558;9.234;2024-02-15T07:35:19;97954.47;;;13.04;83.00
21980;BME280;11154;48.558;9.234;2024-02-15T07:37:22;97949.47;;;13.01;82.43
21980;BME280;11154;48.558;9.234;2024-02-15T07:39:26;97957.47;;;13.01;83.13
21980;BME280;11154;48.558;9.234;2024-02-15T07:41:28;97955.81;;;13.00;82.88
21980;BME280;11154;48.558;9.234;2024-02-15T07:43:31;97950.16;;;13.03;83.70
21980;BME280;11154;48.558;9.234;2024-02-15T07:45:33;97954.47;;;13.04;83.44
21980;BME280;11154;48.558;9.234;2024-02-15T07:47:37;97943.28;;;13.08;83.82
21980;BME280;11154;48.558;9.234;2024-02-15T07:49:38;97947.78;;;13.16;83.45
21980;BME280;11154;48.558;9.234;2024-02-15T07:51:41;97945.63;;;13.19;83.92
21980;BME280;11154;48.558;9.234;2024-02-15T07:53:42;97932.91;;;13.45;83.51
21980;BME280;11154;48.558;9.234;2024-02-15T07:55:44;97938.75;;;13.49;83.66
21980;BME280;11154;48.558;9.234;2024-02-15T07:57:45;97935.25;;;13.48;84.09
21980;BME280;11154;48.558;9.234;2024-02-15T07:59:48;97922.41;;;13.52;84.91
21980;BME280;11154;48.558;9.234;2024-02-15T08:01:50;97920.22;;;13.55;85.43
21980;BME280;11154;48.558;9.234;2024-02-15T08:03:52;97909.84;;;13.60;85.42
21980;BME280;11154;48.558;9.234;2024-02-15T08:05:54;97901.16;;;13.66;85.41
21980;BME280;11154;48.558;9.234;2024-02-15T08:07:57;97899.78;;;13.70;85.43
21980;BME280;11154;48.558;9.234;2024-02-15T08:09:58;97906.97;;;13.69;85.78
21980;BME280;11154;48.558;9.234;2024-02-15T08:12:00;97908.47;;;13.72;86.23
21980;BME280;11154;48.558;9.234;2024-02-15T08:14:03;97895.59;;;13.75;86.48
21980;BME280;11154;48.558;9.234;2024-02-15T08:16:08;97903.13;;;13.80;86.49
21980;BME280;11154;48.558;9.234;2024-02-15T08:18:11;97894.22;;;13.87;86.21
21980;BME280;11154;48.558;9.234;2024-02-15T08:20:14;97896.06;;;13.95;86.79
21980;BME280;11154;48.558;9.234;2024-02-15T08:22:21;97894.19;;;14.03;86.47
21980;BME280;11154;48.558;9.234;2024-02-15T08:24:25;97888.13;;;14.09;86.26
21980;BME280;11154;48.558;9.234;2024-02-15T08:26:27;97888.47;;;14.14;85.73
21980;BME280;11154;48.558;9.234;2024-02-15T08:28:30;97879.94;;;14.19;85.98
21980;BME280;11154;48.558;9.234;2024-02-15T08:30:31;97879.44;;;14.15;86.49
21980;BME280;11154;48.558;9.234;2024-02-15T08:32:32;97874.41;;;14.20;86.60
21980;BME280;11154;48.558;9.234;2024-02-15T08:34:33;97870.72;;;14.21;86.58
21980;BME280;11154;48.558;9.234;2024-02-15T08:36:35;97875.34;;;14.27;86.65
21980;BME280;11154;48.558;9.234;2024-02-15T08:38:37;97870.69;;;14.29;86.50
21980;BME280;11154;48.558;9.234;2024-02-15T08:40:40;97862.28;;;14.32;86.95
21980;BME280;11154;48.558;9.234;2024-02-15T08:42:42;97866.44;;;14.35;87.07
21980;BME280;11154;48.558;9.234;2024-02-15T08:44:42;97856.59;;;14.35;86.85
21980;BME280;11154;48.558;9.234;2024-02-15T08:46:44;97864.25;;;14.38;86.50
21980;BME280;11154;48.558;9.234;2024-02-15T08:48:46;97857.06;;;14.39;86.59
21980;BME280;11154;48.558;9.234;2024-02-15T08:50:47;97856.06;;;14.40;87.02
21980;BME280;11154;48.558;9.234;2024-02-15T08:52:49;97849.34;;;14.43;87.01
21980;BME280;11154;48.558;9.234;2024-02-15T08:54:50;97855.75;;;14.57;86.49
21980;BME280;11154;48.558;9.234;2024-02-15T08:56:53;97843.38;;;14.78;85.94
21980;BME280;11154;48.558;9.234;2024-02-15T08:58:55;97848.25;;;14.75;85.29
21980;BME280;11154;48.558;9.234;2024-02-15T09:00:58;97852.59;;;14.76;85.01
21980;BME280;11154;48.558;9.234;2024-02-15T09:02:59;97834.88;;;14.75;85.00
21980;BME280;11154;48.558;9.234;2024-02-15T09:05:01;97840.41;;;14.73;84.57
21980;BME280;11154;48.558;9.234;2024-02-15T09:07:03;97835.06;;;14.73;84.80
21980;BME280;11154;48.558;9.234;2024-02-15T09:09:04;97831.56;;;14.73;84.43
21980;BME280;11154;48.558;9.234;2024-02-15T09:11:06;97833.41;;;14.72;84.65
21980;BME280;11154;48.558;9.234;2024-02-15T09:13:13;97837.56;;;14.75;84.71
21980;BME280;11154;48.558;9.234;2024-02-15T09:15:15;97832.88;;;14.77;84.40
21980;BME280;11154;48.558;9.234;2024-02-15T09:17:17;97829.00;;;14.79;84.34
21980;BME280;11154;48.558;9.234;2024-02-15T09:19:19;97830.66;;;14.80;84.45
21980;BME280;11154;48.558;9.234;2024-02-15T09:21:20;97830.47;;;14.82;84.65
21980;BME280;11154;48.558;9.234;2024-02-15T09:23:25;97823.09;;;14.84;84.35
21980;BME280;11154;48.558;9.234;2024-02-15T09:25:26;97822.56;;;14.88;84.06
21980;BME280;11154;48.558;9.234;2024-02-15T09:27:28;97833.94;;;14.90;83.94
21980;BME280;11154;48.558;9.234;2024-02-15T09:29:31;97825.34;;;14.95;83.84
21980;BME280;11154;48.558;9.234;2024-02-15T09:31:33;97816.22;;;15.04;84.03
21980;BME280;11154;48.558;9.234;2024-02-15T09:33:36;97813.84;;;15.09;83.42
21980;BME280;11154;48.558;9.234;2024-02-15T09:35:38;97813.63;;;15.10;83.21
21980;BME280;11154;48.558;9.234;2024-02-15T09:37:45;97808.13;;;15.12;83.11
21980;BME280;11154;48.558;9.234;2024-02-15T09:39:49;97808.13;;;15.12;83.47
21980;BME280;11154;48.558;9.234;2024-02-15T09:41:49;97801.38;;;15.15;83.25
21980;BME280;11154;48.558;9.234;2024-02-15T09:43:57;97800.38;;;15.16;82.88
21980;BME280;11154;48.558;9.234;2024-02-15T09:46:00;97798.97;;;15.20;82.82
21980;BME280;11154;48.558;9.234;2024-02-15T09:48:06;97799.31;;;15.25;82.44
21980;BME280;11154;48.558;9.234;2024-02-15T09:50:10;97798.28;;;15.26;82.24
21980;BME280;11154;48.558;9.234;2024-02-15T09:52:13;97792.56;;;15.29;82.73
21980;BME280;11154;48.558;9.234;2024-02-15T09:54:18;97787.84;;;15.31;82.73
21980;BME280;11154;48.558;9.234;2024-02-15T09:56:23;97787.47;;;15.34;82.95
21980;BME280;11154;48.558;9.234;2024-02-15T09:58:26;97793.31;;;15.38;82.46
21980;BME280;11154;48.558;9.234;2024-02-15T10:00:27;97790.63;;;15.38;81.76
21980;BME280;11154;48.558;9.234;2024-02-15T10:02:29;97792.75;;;15.42;81.35
21980;BME280;11154;48.558;9.234;2024-02-15T10:04:32;97795.03;;;15.45;80.87
21980;BME280;11154;48.558;9.234;2024-02-15T10:06:34;97792.66;;;15.50;80.71
21980;BME280;11154;48.558;9.234;2024-02-15T10:08:37;97790.44;;;15.54;80.17
21980;BME280;11154;48.558;9.234;2024-02-15T10:10:39;97787.19;;;15.58;79.79
21980;BME280;11154;48.558;9.234;2024-02-15T10:12:41;97788.66;;;15.61;79.64
21980;BME280;11154;48.558;9.234;2024-02-15T10:14:48;97788.97;;;15.66;80.23
21980;BME280;11154;48.558;9.234;2024-02-15T10:16:51;97787.19;;;15.73;79.72
21980;BME280;11154;48.558;9.234;2024-02-15T10:19:08;97783.56;;;15.80;79.02
21980;BME280;11154;48.558;9.234;2024-02-15T10:21:10;97774.13;;;15.84;78.65
21980;BME280;11154;48.558;9.234;2024-02-15T10:23:24;97780.41;;;15.91;78.19
21980;BME280;11154;48.558;9.234;2024-02-15T10:25:27;97777.81;;;15.97;78.70
21980;BME280;11154;48.558;9.234;2024-02-15T10:27:29;97771.84;;;16.02;79.08
21980;BME280;11154;48.558;9.234;2024-02-15T10:29:38;97763.69;;;16.10;80.21
21980;BME280;11154;48.558;9.234;2024-02-15T10:31:40;97768.38;;;16.22;79.12
21980;BME280;11154;48.558;9.234;2024-02-15T10:34:01;97765.16;;;16.27;77.52
21980;BME280;11154;48.558;9.234;2024-02-15T10:36:08;97770.22;;;16.36;78.01
21980;BME280;11154;48.558;9.234;2024-02-15T10:38:11;97754.56;;;16.40;76.44
21980;BME280;11154;48.558;9.234;2024-02-15T10:40:17;97757.56;;;16.51;76.58
21980;BME280;11154;48.558;9.234;2024-02-15T10:42:19;97751.63;;;16.56;75.65
21980;BME280;11154;48.558;9.234;2024-02-15T10:44:22;97746.94;;;16.64;75.75
21980;BME280;11154;48.558;9.234;2024-02-15T10:46:24;97757.53;;;16.72;74.21
21980;BME280;11154;48.558;9.234;2024-02-15T10:48:26;97740.44;;;16.79;74.01